createdAt,value
2018-10-02T00:00:35.161Z,7.60
2018-10-02T00:01:35.152Z,7.54
2018-10-02T00:02:35.138Z,7.58
2018-10-02T00:03:35.129Z,7.54
2018-10-02T00:04:35.149Z,7.57
2018-10-02T00:05:35.122Z,7.58
2018-10-02T00:06:35.096Z,7.54
2018-10-02T00:07:35.080Z,7.61
2018-10-02T00:08:35.077Z,7.57
2018-10-02T00:09:35.059Z,7.61
2018-10-02T00:10:35.092Z,7.60
2018-10-02T00:11:35.047Z,7.64
2018-10-02T00:12:35.027Z,7.64
2018-10-02T00:13:35.019Z,7.66
2018-10-02T00:14:35.012Z,7.64
2018-10-02T00:15:34.999Z,7.58
2018-10-02T00:16:35.023Z,7.62
2018-10-02T00:17:34.984Z,7.64
2018-10-02T00:18:34.964Z,7.66
2018-10-02T00:19:34.994Z,7.62
2018-10-02T00:20:34.943Z,7.62
2018-10-02T00:21:34.937Z,7.69
2018-10-02T00:22:34.952Z,7.62
2018-10-02T00:23:34.930Z,7.60
2018-10-02T00:24:34.915Z,7.62
2018-10-02T00:25:34.883Z,7.60
2018-10-02T00:26:34.872Z,7.62
2018-10-02T00:27:34.866Z,7.61
2018-10-02T00:28:34.888Z,7.61
2018-10-02T00:29:34.845Z,7.66
2018-10-02T00:30:34.848Z,7.60
2018-10-02T00:31:34.890Z,7.76
2018-10-02T00:32:34.811Z,7.73
2018-10-02T00:33:34.797Z,7.66
2018-10-02T00:34:34.826Z,7.57
2018-10-02T00:35:34.806Z,7.61
2018-10-02T00:36:34.777Z,7.66
2018-10-02T00:37:34.779Z,7.64
2018-10-02T00:38:34.750Z,7.74
2018-10-02T00:39:34.728Z,7.77
2018-10-02T00:40:34.752Z,7.74
2018-10-02T00:41:34.709Z,7.76
2018-10-02T00:42:34.703Z,7.76
2018-10-02T00:43:34.709Z,7.77
2018-10-02T00:44:34.673Z,7.77
2018-10-02T00:45:34.662Z,7.80
2018-10-02T00:46:34.693Z,7.74
2018-10-02T00:47:34.651Z,7.78
2018-10-02T00:48:34.629Z,7.80
2018-10-02T00:49:34.629Z,7.76
2018-10-02T00:50:34.628Z,7.73
2018-10-02T00:51:34.609Z,7.57
2018-10-02T00:52:34.631Z,7.62
2018-10-02T00:53:34.587Z,7.62
2018-10-02T00:54:34.589Z,7.62
2018-10-02T00:55:34.568Z,7.61
2018-10-02T00:56:34.554Z,7.69
2018-10-02T00:57:34.548Z,7.57
2018-10-02T00:58:34.567Z,7.62
2018-10-02T00:59:34.543Z,7.58
2018-10-02T01:00:34.508Z,7.55
2018-10-02T01:01:34.496Z,7.58
2018-10-02T01:02:34.492Z,7.60
2018-10-02T01:03:34.484Z,7.62
2018-10-02T01:04:34.514Z,7.61
2018-10-02T01:05:34.449Z,7.55
2018-10-02T01:06:34.439Z,7.60
2018-10-02T01:07:34.439Z,7.60
2018-10-02T01:08:34.431Z,7.57
2018-10-02T01:09:34.404Z,7.58
2018-10-02T01:10:34.477Z,7.55
2018-10-02T01:11:34.384Z,7.57
2018-10-02T01:12:34.367Z,7.52
2018-10-02T01:13:34.354Z,7.60
2018-10-02T01:14:34.357Z,7.50
2018-10-02T01:15:34.330Z,7.50
2018-10-02T01:16:34.354Z,7.50
2018-10-02T01:17:34.316Z,7.46
2018-10-02T01:18:34.298Z,7.47
2018-10-02T01:19:34.294Z,7.44
2018-10-02T01:20:34.287Z,7.47
2018-10-02T01:21:34.271Z,7.49
2018-10-02T01:22:34.313Z,7.36
2018-10-02T01:23:34.273Z,7.42
2018-10-02T01:24:34.281Z,7.42
2018-10-02T01:25:34.266Z,7.37
2018-10-02T01:26:34.219Z,7.26
2018-10-02T01:27:34.216Z,7.29
2018-10-02T01:28:34.260Z,7.28
2018-10-02T01:29:34.196Z,7.22
2018-10-02T01:30:34.213Z,7.25
2018-10-02T01:31:34.197Z,7.25
2018-10-02T01:32:34.164Z,7.21
2018-10-02T01:33:34.165Z,7.21
2018-10-02T01:34:34.177Z,7.24
2018-10-02T01:35:34.115Z,7.31
2018-10-02T01:36:34.111Z,7.24
2018-10-02T01:37:34.160Z,7.28
2018-10-02T01:38:34.091Z,7.31
2018-10-02T01:39:34.086Z,7.19
2018-10-02T01:40:34.104Z,7.34
2018-10-02T01:41:34.053Z,7.26
2018-10-02T01:42:34.038Z,7.26
2018-10-02T01:43:34.036Z,7.22
2018-10-02T01:44:34.021Z,7.28
2018-10-02T01:45:34.009Z,7.16
2018-10-02T01:46:34.049Z,7.31
2018-10-02T01:47:34.055Z,7.22
2018-10-02T01:48:33.989Z,7.22
2018-10-02T01:49:33.966Z,7.29
2018-10-02T01:50:33.961Z,7.25
2018-10-02T01:51:33.949Z,7.26
2018-10-02T01:52:33.961Z,7.25
2018-10-02T01:53:33.930Z,7.33
2018-10-02T01:54:33.907Z,7.25
2018-10-02T01:55:33.890Z,7.28
2018-10-02T01:56:33.901Z,7.24
2018-10-02T01:57:33.867Z,7.31
2018-10-02T01:58:33.900Z,7.28
2018-10-02T01:59:33.856Z,7.36
2018-10-02T02:00:33.845Z,7.26
2018-10-02T02:01:33.823Z,7.29
2018-10-02T02:02:33.812Z,7.25
2018-10-02T02:03:33.805Z,7.29
2018-10-02T02:04:33.822Z,7.25
2018-10-02T02:05:33.789Z,7.29
2018-10-02T02:06:33.772Z,7.21
2018-10-02T02:07:33.758Z,7.22
2018-10-02T02:08:33.761Z,7.28
2018-10-02T02:09:33.736Z,7.28
2018-10-02T02:10:33.758Z,7.26
2018-10-02T02:11:33.732Z,7.26
2018-10-02T02:12:33.703Z,7.29
2018-10-02T02:13:33.694Z,7.24
2018-10-02T02:14:33.688Z,7.19
2018-10-02T02:15:33.678Z,7.26
2018-10-02T02:16:33.698Z,7.31
2018-10-02T02:17:33.656Z,7.24
2018-10-02T02:18:33.643Z,7.28
2018-10-02T02:19:33.650Z,7.34
2018-10-02T02:20:33.615Z,7.26
2018-10-02T02:21:33.608Z,7.21
2018-10-02T02:22:33.623Z,7.24
2018-10-02T02:23:33.585Z,7.26
2018-10-02T02:24:33.570Z,7.21
2018-10-02T02:25:33.572Z,7.24
2018-10-02T02:26:33.559Z,7.28
2018-10-02T02:27:33.552Z,7.36
2018-10-02T02:28:33.567Z,7.25
2018-10-02T02:29:33.548Z,7.26
2018-10-02T02:30:33.515Z,7.36
2018-10-02T02:31:33.505Z,7.25
2018-10-02T02:32:33.492Z,7.31
2018-10-02T02:33:33.486Z,7.36
2018-10-02T02:34:33.502Z,7.33
2018-10-02T02:35:33.462Z,7.28
2018-10-02T02:36:33.443Z,7.28
2018-10-02T02:37:33.433Z,7.26
2018-10-02T02:38:33.450Z,7.39
2018-10-02T02:39:33.415Z,7.28
2018-10-02T02:40:33.431Z,7.34
2018-10-02T02:41:33.402Z,7.22
2018-10-02T02:42:33.373Z,7.34
2018-10-02T02:43:33.370Z,7.26
2018-10-02T02:44:33.358Z,7.22
2018-10-02T02:45:33.339Z,7.28
2018-10-02T02:46:33.366Z,7.29
2018-10-02T02:47:33.329Z,7.24
2018-10-02T02:48:33.309Z,7.28
2018-10-02T02:49:33.310Z,7.33
2018-10-02T02:50:33.299Z,7.26
2018-10-02T02:51:33.284Z,7.25
2018-10-02T02:52:33.392Z,7.29
2018-10-02T02:53:33.255Z,7.25
2018-10-02T02:54:33.254Z,7.36
2018-10-02T02:55:33.232Z,7.28
2018-10-02T02:56:33.226Z,7.33
2018-10-02T02:57:33.209Z,7.42
2018-10-02T02:58:33.228Z,7.42
2018-10-02T02:59:33.185Z,7.37
2018-10-02T03:00:33.176Z,7.37
2018-10-02T03:01:33.173Z,7.37
2018-10-02T03:02:33.165Z,7.43
2018-10-02T03:03:33.146Z,7.42
2018-10-02T03:04:33.163Z,7.43
2018-10-02T03:05:33.121Z,7.46
2018-10-02T03:06:33.112Z,7.50
2018-10-02T03:07:33.099Z,7.46
2018-10-02T03:08:33.103Z,7.47
2018-10-02T03:09:33.101Z,7.52
2018-10-02T03:10:33.108Z,7.49
2018-10-02T03:11:33.082Z,7.52
2018-10-02T03:12:33.056Z,7.47
2018-10-02T03:13:33.053Z,7.43
2018-10-02T03:14:33.034Z,7.50
2018-10-02T03:15:33.016Z,7.49
2018-10-02T03:16:33.038Z,7.46
2018-10-02T03:17:32.998Z,7.46
2018-10-02T03:18:32.993Z,7.44
2018-10-02T03:19:32.972Z,7.46
2018-10-02T03:20:32.965Z,7.52
2018-10-02T03:21:32.961Z,7.47
2018-10-02T03:22:32.985Z,7.57
2018-10-02T03:23:32.933Z,7.57
2018-10-02T03:24:32.992Z,7.55
2018-10-02T03:25:32.916Z,7.57
2018-10-02T03:26:32.905Z,7.60
2018-10-02T03:27:32.892Z,7.57
2018-10-02T03:28:32.931Z,7.64
2018-10-02T03:29:32.869Z,7.60
2018-10-02T03:30:32.851Z,7.60
2018-10-02T03:31:32.846Z,7.61
2018-10-02T03:32:32.830Z,7.55
2018-10-02T03:33:32.818Z,7.58
2018-10-02T03:34:32.842Z,7.71
2018-10-02T03:35:32.808Z,7.60
2018-10-02T03:36:32.789Z,7.60
2018-10-02T03:37:32.774Z,7.62
2018-10-02T03:38:32.778Z,7.66
2018-10-02T03:39:32.782Z,7.60
2018-10-02T03:40:32.837Z,7.71
2018-10-02T03:41:32.732Z,7.76
2018-10-02T03:42:32.714Z,7.76
2018-10-02T03:43:32.702Z,7.78
2018-10-02T03:44:32.702Z,7.74
2018-10-02T03:45:32.686Z,7.76
2018-10-02T03:46:32.700Z,7.66
2018-10-02T03:47:32.660Z,7.73
2018-10-02T03:48:32.648Z,7.77
2018-10-02T03:49:32.652Z,7.73
2018-10-02T03:50:32.641Z,7.71
2018-10-02T03:51:32.614Z,7.77
2018-10-02T03:52:32.637Z,7.80
2018-10-02T03:53:32.593Z,7.73
2018-10-02T03:54:32.583Z,7.77
2018-10-02T03:55:32.572Z,7.74
2018-10-02T03:56:32.577Z,7.71
2018-10-02T03:57:32.561Z,7.74
2018-10-02T03:58:32.572Z,7.73
2018-10-02T03:59:32.528Z,7.83
2018-10-02T04:00:32.513Z,7.77
2018-10-02T04:01:32.505Z,7.80
2018-10-02T04:02:32.500Z,7.86
2018-10-02T04:03:32.547Z,7.84
2018-10-02T04:04:32.504Z,7.81
2018-10-02T04:05:32.459Z,7.88
2018-10-02T04:06:32.448Z,7.81
2018-10-02T04:07:32.437Z,7.87
2018-10-02T04:08:32.436Z,7.91
2018-10-02T04:09:32.429Z,7.86
2018-10-02T04:10:32.438Z,7.88
2018-10-02T04:11:32.392Z,7.88
2018-10-02T04:12:32.382Z,7.86
2018-10-02T04:13:32.371Z,7.87
2018-10-02T04:14:32.360Z,7.95
2018-10-02T04:15:32.378Z,7.87
2018-10-02T04:16:32.379Z,7.92
2018-10-02T04:17:32.337Z,7.94
2018-10-02T04:18:32.318Z,7.91
2018-10-02T04:19:32.308Z,7.88
2018-10-02T04:20:32.355Z,7.88
2018-10-02T04:21:32.286Z,7.92
2018-10-02T04:22:32.305Z,7.98
2018-10-02T04:23:32.284Z,7.91
2018-10-02T04:24:32.292Z,7.87
2018-10-02T04:25:32.246Z,7.94
2018-10-02T04:26:32.227Z,7.94
2018-10-02T04:27:32.217Z,7.86
2018-10-02T04:28:32.312Z,7.92
2018-10-02T04:29:32.194Z,7.99
2018-10-02T04:30:32.186Z,8.01
2018-10-02T04:31:32.173Z,7.88
2018-10-02T04:32:32.172Z,7.96
2018-10-02T04:33:32.168Z,7.99
2018-10-02T04:34:32.176Z,7.94
2018-10-02T04:35:32.128Z,8.04
2018-10-02T04:36:32.115Z,7.88
2018-10-02T04:37:32.130Z,7.96
2018-10-02T04:38:32.106Z,8.02
2018-10-02T04:39:32.162Z,7.98
2018-10-02T04:40:32.112Z,8.04
2018-10-02T04:41:32.063Z,7.92
2018-10-02T04:42:32.050Z,7.94
2018-10-02T04:43:32.041Z,7.95
2018-10-02T04:44:32.030Z,7.98
2018-10-02T04:45:32.033Z,7.95
2018-10-02T04:46:32.040Z,8.04
2018-10-02T04:47:31.997Z,8.02
2018-10-02T04:48:31.989Z,7.94
2018-10-02T04:49:31.972Z,7.95
2018-10-02T04:50:31.959Z,8.02
2018-10-02T04:51:32.020Z,8.01
2018-10-02T04:52:31.989Z,7.94
2018-10-02T04:53:31.930Z,7.92
2018-10-02T04:54:31.914Z,7.98
2018-10-02T04:55:31.906Z,7.96
2018-10-02T04:56:31.896Z,8.02
2018-10-02T04:57:31.892Z,7.88
2018-10-02T04:58:31.918Z,8.04
2018-10-02T04:59:31.863Z,8.05
2018-10-02T05:00:31.850Z,7.96
2018-10-02T05:01:31.838Z,7.96
2018-10-02T05:02:31.827Z,8.04
2018-10-02T05:03:31.836Z,7.92
2018-10-02T05:04:31.849Z,7.92
2018-10-02T05:05:31.796Z,7.95
2018-10-02T05:06:31.792Z,7.98
2018-10-02T05:07:31.779Z,8.06
2018-10-02T05:08:31.775Z,8.05
2018-10-02T05:09:31.766Z,8.01
2018-10-02T05:10:31.804Z,7.96
2018-10-02T05:11:31.730Z,7.92
2018-10-02T05:12:31.717Z,8.04
2018-10-02T05:13:31.705Z,8.01
2018-10-02T05:14:31.700Z,7.91
2018-10-02T05:15:31.699Z,7.95
2018-10-02T05:16:31.707Z,8.02
2018-10-02T05:17:31.662Z,7.99
2018-10-02T05:18:31.650Z,8.02
2018-10-02T05:19:31.640Z,8.01
2018-10-02T05:20:31.663Z,8.05
2018-10-02T05:21:31.624Z,8.05
2018-10-02T05:22:31.651Z,8.01
2018-10-02T05:23:31.611Z,8.02
2018-10-02T05:24:31.700Z,8.14
2018-10-02T05:25:31.574Z,8.10
2018-10-02T05:26:31.565Z,8.02
2018-10-02T05:27:31.598Z,8.16
2018-10-02T05:28:31.596Z,7.99
2018-10-02T05:29:31.547Z,8.10
2018-10-02T05:30:31.523Z,8.02
2018-10-02T05:31:31.509Z,8.14
2018-10-02T05:32:31.497Z,8.13
2018-10-02T05:33:31.497Z,8.14
2018-10-02T05:34:31.512Z,8.16
2018-10-02T05:35:31.519Z,8.13
2018-10-02T05:36:31.466Z,8.19
2018-10-02T05:37:31.460Z,8.12
2018-10-02T05:38:31.450Z,8.16
2018-10-02T05:39:31.418Z,8.17
2018-10-02T05:40:31.452Z,8.13
2018-10-02T05:41:31.399Z,8.26
2018-10-02T05:42:31.442Z,8.16
2018-10-02T05:43:31.381Z,8.17
2018-10-02T05:44:31.363Z,8.17
2018-10-02T05:45:31.354Z,8.21
2018-10-02T05:46:31.389Z,8.17
2018-10-02T05:47:31.329Z,8.13
2018-10-02T05:48:31.340Z,8.12
2018-10-02T05:49:31.307Z,8.16
2018-10-02T05:50:31.340Z,8.14
2018-10-02T05:51:31.285Z,8.23
2018-10-02T05:52:31.317Z,8.26
2018-10-02T05:53:31.265Z,8.21
2018-10-02T05:54:31.311Z,8.28
2018-10-02T05:55:31.240Z,8.20
2018-10-02T05:56:31.233Z,8.20
2018-10-02T05:57:31.218Z,8.37
2018-10-02T05:58:31.297Z,8.35
2018-10-02T05:59:31.198Z,8.38
2018-10-02T06:00:31.194Z,8.35
2018-10-02T06:01:31.192Z,8.32
2018-10-02T06:02:31.181Z,8.34
2018-10-02T06:03:31.150Z,8.32
2018-10-02T06:04:31.178Z,8.35
2018-10-02T06:05:31.128Z,8.32
2018-10-02T06:06:31.117Z,8.47
2018-10-02T06:07:31.106Z,8.41
2018-10-02T06:08:31.096Z,8.34
2018-10-02T06:09:31.083Z,8.26
2018-10-02T06:10:31.105Z,8.49
2018-10-02T06:11:31.063Z,8.44
2018-10-02T06:12:31.050Z,8.49
2018-10-02T06:13:31.356Z,8.42
2018-10-02T06:14:31.210Z,8.50
2018-10-02T06:15:31.115Z,8.46
2018-10-02T06:16:31.092Z,8.49
2018-10-02T06:17:31.043Z,8.52
2018-10-02T06:18:31.049Z,8.47
2018-10-02T06:19:32.955Z,8.50
2018-10-02T06:20:31.254Z,8.47
2018-10-02T06:21:31.029Z,8.59
2018-10-02T06:22:30.981Z,8.59
2018-10-02T06:23:30.960Z,8.59
2018-10-02T06:24:30.929Z,8.57
2018-10-02T06:25:30.912Z,8.59
2018-10-02T06:26:30.915Z,8.53
2018-10-02T06:27:30.896Z,8.57
2018-10-02T06:28:31.005Z,8.55
2018-10-02T06:29:31.541Z,8.68
2018-10-02T06:30:30.944Z,8.65
2018-10-02T06:31:30.848Z,8.74
2018-10-02T06:32:30.848Z,8.68
2018-10-02T06:33:30.817Z,8.71
2018-10-02T06:34:30.883Z,8.72
2018-10-02T06:35:30.799Z,8.70
2018-10-02T06:36:30.801Z,8.74
2018-10-02T06:37:30.776Z,8.71
2018-10-02T06:38:30.959Z,8.74
2018-10-02T06:39:30.763Z,8.70
2018-10-02T06:40:30.784Z,8.83
2018-10-02T06:41:30.729Z,8.75
2018-10-02T06:42:30.718Z,8.85
2018-10-02T06:43:30.781Z,8.88
2018-10-02T06:44:30.823Z,8.86
2018-10-02T06:45:30.686Z,8.92
2018-10-02T06:46:30.712Z,8.88
2018-10-02T06:47:30.665Z,8.86
2018-10-02T06:48:30.655Z,8.89
2018-10-02T06:49:30.646Z,8.86
2018-10-02T06:50:30.671Z,8.89
2018-10-02T06:51:30.771Z,8.96
2018-10-02T06:52:30.888Z,8.90
2018-10-02T06:53:30.594Z,8.89
2018-10-02T06:54:30.597Z,8.89
2018-10-02T06:55:30.579Z,8.90
2018-10-02T06:56:30.589Z,8.88
2018-10-02T06:57:30.567Z,8.88
2018-10-02T06:58:30.577Z,8.81
2018-10-02T06:59:30.529Z,8.83
2018-10-02T07:00:30.590Z,8.80
2018-10-02T07:01:30.511Z,8.70
2018-10-02T07:02:30.535Z,8.71
2018-10-02T07:03:30.484Z,8.57
2018-10-02T07:04:30.526Z,8.53
2018-10-02T07:05:30.460Z,8.56
2018-10-02T07:06:30.448Z,8.53
2018-10-02T07:07:30.438Z,8.52
2018-10-02T07:08:30.486Z,8.50
2018-10-02T07:09:30.418Z,8.50
2018-10-02T07:10:30.473Z,8.50
2018-10-02T07:11:30.408Z,8.42
2018-10-02T07:12:30.395Z,8.44
2018-10-02T07:13:30.484Z,8.44
2018-10-02T07:14:30.452Z,8.52
2018-10-02T07:15:30.391Z,8.52
2018-10-02T07:16:30.381Z,8.35
2018-10-02T07:17:30.509Z,8.46
2018-10-02T07:18:30.327Z,8.46
2018-10-02T07:19:30.311Z,8.44
2018-10-02T07:20:30.352Z,8.39
2018-10-02T07:21:30.284Z,8.39
2018-10-02T07:22:30.304Z,8.46
2018-10-02T07:23:30.270Z,8.34
2018-10-02T07:24:30.258Z,8.42
2018-10-02T07:25:30.294Z,8.46
2018-10-02T07:26:30.271Z,8.52
2018-10-02T07:27:30.470Z,8.50
2018-10-02T07:28:30.344Z,8.56
2018-10-02T07:29:30.229Z,8.49
2018-10-02T07:30:30.221Z,8.53
2018-10-02T07:31:30.190Z,8.55
2018-10-02T07:32:30.181Z,8.56
2018-10-02T07:33:30.155Z,8.52
2018-10-02T07:34:30.182Z,8.67
2018-10-02T07:35:30.176Z,8.68
2018-10-02T07:36:30.167Z,8.65
2018-10-02T07:37:30.116Z,8.68
2018-10-02T07:38:30.140Z,8.67
2018-10-02T07:39:30.088Z,8.62
2018-10-02T07:40:30.108Z,8.70
2018-10-02T07:41:30.117Z,8.62
2018-10-02T07:42:30.136Z,8.63
2018-10-02T07:43:30.059Z,8.57
2018-10-02T07:44:30.068Z,8.57
2018-10-02T07:45:30.021Z,8.53
2018-10-02T07:46:30.042Z,8.65
2018-10-02T07:47:30.118Z,8.57
2018-10-02T07:48:30.069Z,8.57
2018-10-02T07:49:29.976Z,8.62
2018-10-02T07:50:29.985Z,8.63
2018-10-02T07:51:29.957Z,8.57
2018-10-02T07:52:30.031Z,8.67
2018-10-02T07:53:29.946Z,8.68
2018-10-02T07:54:29.949Z,8.65
2018-10-02T07:55:29.952Z,8.68
2018-10-02T07:56:29.960Z,8.65
2018-10-02T07:57:29.885Z,8.80
2018-10-02T07:58:29.916Z,8.81
2018-10-02T07:59:29.902Z,8.85
2018-10-02T08:00:29.858Z,8.77
2018-10-02T08:01:29.845Z,8.86
2018-10-02T08:02:29.966Z,8.89
2018-10-02T08:03:29.817Z,8.96
2018-10-02T08:04:29.846Z,8.93
2018-10-02T08:05:29.885Z,8.98
2018-10-02T08:06:29.793Z,8.98
2018-10-02T08:07:29.774Z,9.01
2018-10-02T08:08:29.780Z,8.99
2018-10-02T08:09:29.748Z,8.98
2018-10-02T08:10:29.797Z,8.96
2018-10-02T08:11:29.800Z,8.95
2018-10-02T08:12:29.930Z,8.92
2018-10-02T08:13:29.764Z,8.99
2018-10-02T08:14:29.712Z,8.92
2018-10-02T08:15:29.701Z,8.93
2018-10-02T08:16:29.714Z,8.96
2018-10-02T08:17:29.723Z,8.96
2018-10-02T08:18:29.652Z,9.03
2018-10-02T08:19:29.659Z,9.06
2018-10-02T08:20:29.683Z,9.08
2018-10-02T08:21:29.645Z,9.06
2018-10-02T08:22:29.649Z,9.08
2018-10-02T08:23:29.620Z,9.14
2018-10-02T08:24:29.625Z,9.06
2018-10-02T08:25:29.572Z,9.11
2018-10-02T08:26:29.621Z,9.16
2018-10-02T08:27:29.589Z,9.12
2018-10-02T08:28:29.597Z,9.09
2018-10-02T08:29:29.675Z,9.14
2018-10-02T08:30:29.558Z,9.18
2018-10-02T08:31:29.506Z,9.12
2018-10-02T08:32:29.565Z,9.18
2018-10-02T08:33:29.495Z,9.14
2018-10-02T08:34:29.525Z,9.16
2018-10-02T08:35:29.506Z,9.22
2018-10-02T08:36:29.498Z,9.26
2018-10-02T08:37:29.446Z,9.32
2018-10-02T08:38:29.431Z,9.32
2018-10-02T08:39:29.424Z,9.32
2018-10-02T08:40:29.450Z,9.41
2018-10-02T08:41:29.397Z,9.42
2018-10-02T08:42:29.384Z,9.42
2018-10-02T08:43:29.475Z,9.50
2018-10-02T08:44:29.396Z,9.60
2018-10-02T08:45:29.360Z,9.54
2018-10-02T08:46:29.386Z,9.57
2018-10-02T08:47:29.381Z,9.60
2018-10-02T08:48:29.328Z,9.51
2018-10-02T08:49:29.308Z,9.47
2018-10-02T08:50:29.385Z,9.44
2018-10-02T08:51:29.305Z,9.44
2018-10-02T08:52:29.304Z,9.44
2018-10-02T08:53:29.305Z,9.51
2018-10-02T08:54:29.261Z,9.37
2018-10-02T08:55:29.240Z,9.47
2018-10-02T08:56:29.252Z,9.41
2018-10-02T08:57:29.221Z,9.45
2018-10-02T08:58:29.249Z,9.44
2018-10-02T08:59:29.195Z,9.51
2018-10-02T09:00:29.213Z,9.52
2018-10-02T09:01:29.181Z,9.57
2018-10-02T09:02:29.170Z,9.55
2018-10-02T09:03:29.156Z,9.51
2018-10-02T09:04:29.175Z,9.52
2018-10-02T09:05:29.131Z,9.37
2018-10-02T09:06:29.173Z,9.42
2018-10-02T09:07:29.109Z,9.37
2018-10-02T09:08:29.104Z,9.32
2018-10-02T09:09:29.091Z,9.30
2018-10-02T09:10:29.115Z,9.34
2018-10-02T09:11:29.058Z,9.33
2018-10-02T09:12:29.104Z,9.33
2018-10-02T09:13:29.046Z,9.34
2018-10-02T09:14:29.029Z,9.42
2018-10-02T09:15:29.094Z,9.41
2018-10-02T09:16:29.082Z,9.45
2018-10-02T09:17:28.994Z,9.42
2018-10-02T09:18:29.041Z,9.40
2018-10-02T09:19:28.975Z,9.40
2018-10-02T09:20:28.972Z,9.44
2018-10-02T09:21:28.987Z,9.45
2018-10-02T09:22:28.987Z,9.47
2018-10-02T09:23:28.927Z,9.47
2018-10-02T09:24:28.938Z,9.44
2018-10-02T09:25:28.907Z,9.41
2018-10-02T09:26:28.902Z,9.45
2018-10-02T09:27:28.913Z,9.42
2018-10-02T09:28:28.956Z,9.41
2018-10-02T09:29:28.858Z,9.42
2018-10-02T09:30:29.000Z,9.48
2018-10-02T09:31:28.851Z,9.42
2018-10-02T09:32:28.837Z,9.44
2018-10-02T09:33:28.878Z,9.57
2018-10-02T09:34:28.851Z,9.62
2018-10-02T09:35:28.790Z,9.62
2018-10-02T09:36:28.843Z,9.69
2018-10-02T09:37:28.858Z,9.72
2018-10-02T09:38:28.771Z,9.81
2018-10-02T09:39:28.755Z,9.88
2018-10-02T09:40:28.781Z,9.81
2018-10-02T09:41:28.724Z,9.91
2018-10-02T09:42:28.722Z,10.01
2018-10-02T09:43:28.762Z,9.96
2018-10-02T09:44:28.706Z,10.08
2018-10-02T09:45:28.743Z,9.96
2018-10-02T09:46:28.713Z,10.01
2018-10-02T09:47:28.662Z,10.03
2018-10-02T09:48:28.691Z,9.94
2018-10-02T09:49:28.649Z,10.03
2018-10-02T09:50:28.678Z,9.94
2018-10-02T09:51:28.625Z,9.96
2018-10-02T09:52:28.674Z,9.88
2018-10-02T09:53:28.615Z,9.96
2018-10-02T09:54:28.628Z,9.91
2018-10-02T09:55:28.612Z,9.88
2018-10-02T09:56:28.630Z,9.90
2018-10-02T09:57:28.576Z,9.98
2018-10-02T09:58:28.692Z,9.87
2018-10-02T09:59:28.531Z,9.84
2018-10-02T10:00:28.555Z,9.78
2018-10-02T10:01:28.511Z,9.84
2018-10-02T10:02:28.537Z,9.73
2018-10-02T10:03:28.607Z,9.77
2018-10-02T10:04:28.532Z,9.78
2018-10-02T10:05:28.458Z,9.81
2018-10-02T10:06:28.508Z,9.87
2018-10-02T10:07:28.442Z,9.91
2018-10-02T10:08:28.431Z,9.84
2018-10-02T10:09:28.482Z,9.88
2018-10-02T10:10:28.476Z,9.88
2018-10-02T10:11:28.396Z,9.88
2018-10-02T10:12:28.393Z,9.96
2018-10-02T10:13:28.383Z,9.94
2018-10-02T10:14:28.361Z,9.85
2018-10-02T10:15:29.456Z,9.90
2018-10-02T10:16:28.472Z,9.96
2018-10-02T10:17:28.443Z,9.87
2018-10-02T10:18:28.323Z,9.90
2018-10-02T10:19:28.313Z,10.02
2018-10-02T10:20:28.297Z,9.93
2018-10-02T10:21:28.294Z,9.98
2018-10-02T10:22:28.367Z,9.98
2018-10-02T10:23:28.270Z,10.06
2018-10-02T10:24:28.283Z,10.01
2018-10-02T10:25:28.237Z,10.01
2018-10-02T10:26:28.273Z,9.96
2018-10-02T10:27:28.227Z,10.01
2018-10-02T10:28:28.332Z,9.96
2018-10-02T10:29:28.202Z,9.91
2018-10-02T10:30:28.189Z,9.99
2018-10-02T10:31:28.192Z,9.93
2018-10-02T10:32:28.182Z,9.96
2018-10-02T10:33:28.165Z,9.94
2018-10-02T10:34:28.215Z,9.93
2018-10-02T10:35:28.143Z,10.02
2018-10-02T10:36:28.118Z,9.96
2018-10-02T10:37:28.110Z,10.02
2018-10-02T10:38:28.105Z,10.05
2018-10-02T10:39:28.088Z,9.90
2018-10-02T10:40:28.252Z,10.02
2018-10-02T10:41:28.062Z,10.14
2018-10-02T10:42:28.065Z,10.03
2018-10-02T10:43:28.045Z,9.98
2018-10-02T10:44:28.031Z,10.05
2018-10-02T10:45:28.043Z,10.01
2018-10-02T10:46:28.134Z,10.09
2018-10-02T10:47:28.002Z,10.09
2018-10-02T10:48:27.991Z,10.20
2018-10-02T10:49:27.974Z,10.20
2018-10-02T10:50:27.971Z,10.27
2018-10-02T10:51:27.962Z,10.34
2018-10-02T10:52:28.021Z,10.26
2018-10-02T10:53:27.951Z,10.36
2018-10-02T10:54:27.920Z,10.36
2018-10-02T10:55:27.905Z,10.28
2018-10-02T10:56:28.031Z,10.23
2018-10-02T10:57:27.884Z,10.34
2018-10-02T10:58:27.981Z,10.27
2018-10-02T10:59:27.940Z,10.28
2018-10-02T11:00:27.851Z,10.31
2018-10-02T11:01:27.840Z,10.31
2018-10-02T11:02:27.825Z,10.39
2018-10-02T11:03:27.816Z,10.43
2018-10-02T11:04:27.933Z,10.36
2018-10-02T11:05:27.803Z,10.46
2018-10-02T11:06:27.867Z,10.46
2018-10-02T11:07:27.772Z,10.45
2018-10-02T11:08:27.765Z,10.55
2018-10-02T11:09:27.833Z,10.49
2018-10-02T11:10:27.792Z,10.55
2018-10-02T11:11:27.727Z,10.55
2018-10-02T11:12:27.728Z,10.61
2018-10-02T11:13:27.711Z,10.57
2018-10-02T11:14:27.691Z,10.55
2018-10-02T11:15:27.691Z,10.62
2018-10-02T11:16:27.770Z,10.73
2018-10-02T11:17:27.691Z,10.68
2018-10-02T11:18:27.708Z,10.70
2018-10-02T11:19:27.655Z,10.64
2018-10-02T11:20:27.638Z,10.64
2018-10-02T11:21:27.625Z,10.65
2018-10-02T11:22:27.679Z,10.67
2018-10-02T11:23:27.686Z,10.64
2018-10-02T11:24:27.589Z,10.70
2018-10-02T11:25:27.712Z,10.80
2018-10-02T11:26:27.564Z,10.80
2018-10-02T11:27:27.564Z,10.83
2018-10-02T11:28:27.664Z,10.82
2018-10-02T11:29:27.539Z,10.98
2018-10-02T11:30:27.582Z,10.98
2018-10-02T11:31:27.526Z,11.03
2018-10-02T11:32:27.502Z,10.94
2018-10-02T11:33:27.490Z,11.05
2018-10-02T11:34:27.537Z,11.04
2018-10-02T11:35:27.506Z,11.04
2018-10-02T11:36:27.863Z,10.97
2018-10-02T11:37:27.450Z,11.03
2018-10-02T11:38:27.437Z,11.03
2018-10-02T11:39:27.456Z,11.00
2018-10-02T11:40:27.465Z,11.09
2018-10-02T11:41:27.406Z,11.13
2018-10-02T11:42:27.401Z,11.15
2018-10-02T11:43:27.408Z,11.11
2018-10-02T11:44:27.491Z,11.08
2018-10-02T11:45:27.360Z,11.22
2018-10-02T11:46:27.390Z,11.25
2018-10-02T11:47:27.334Z,11.20
2018-10-02T11:48:27.333Z,11.27
2018-10-02T11:49:27.346Z,11.25
2018-10-02T11:50:27.310Z,11.25
2018-10-02T11:51:27.284Z,11.23
2018-10-02T11:52:27.328Z,11.28
2018-10-02T11:53:27.261Z,11.34
2018-10-02T11:54:27.259Z,11.33
2018-10-02T11:55:27.347Z,11.27
2018-10-02T11:56:27.294Z,11.34
2018-10-02T11:57:27.261Z,11.33
2018-10-02T11:58:27.243Z,11.40
2018-10-02T11:59:27.198Z,11.49
2018-10-02T12:00:27.238Z,11.43
2018-10-02T12:01:27.247Z,11.45
2018-10-02T12:02:27.233Z,11.49
2018-10-02T12:03:27.401Z,11.52
2018-10-02T12:04:27.189Z,11.56
2018-10-02T12:05:27.138Z,11.49
2018-10-02T12:06:27.132Z,11.49
2018-10-02T12:07:27.118Z,11.48
2018-10-02T12:08:27.109Z,11.56
2018-10-02T12:09:27.118Z,11.49
2018-10-02T12:10:27.123Z,11.58
2018-10-02T12:11:27.137Z,11.61
2018-10-02T12:12:27.055Z,11.56
2018-10-02T12:13:27.109Z,11.62
2018-10-02T12:14:27.298Z,11.64
2018-10-02T12:15:27.026Z,11.59
2018-10-02T12:16:27.050Z,11.61
2018-10-02T12:17:27.061Z,11.70
2018-10-02T12:18:27.000Z,11.59
2018-10-02T12:19:27.071Z,11.67
2018-10-02T12:20:27.012Z,11.61
2018-10-02T12:21:26.979Z,11.69
2018-10-02T12:22:26.972Z,11.59
2018-10-02T12:23:26.944Z,11.70
2018-10-02T12:24:26.920Z,11.71
2018-10-02T12:25:26.913Z,11.58
2018-10-02T12:26:26.916Z,11.70
2018-10-02T12:27:26.901Z,11.64
2018-10-02T12:28:26.922Z,11.69
2018-10-02T12:29:26.874Z,11.67
2018-10-02T12:30:26.865Z,11.64
2018-10-02T12:31:26.845Z,11.66
2018-10-02T12:32:26.832Z,11.67
2018-10-02T12:33:26.826Z,11.55
2018-10-02T12:34:26.892Z,11.59
2018-10-02T12:35:26.821Z,11.59
2018-10-02T12:36:26.800Z,11.61
2018-10-02T12:37:26.797Z,11.64
2018-10-02T12:38:26.793Z,11.58
2018-10-02T12:39:26.825Z,11.64
2018-10-02T12:40:26.785Z,11.58
2018-10-02T12:41:26.737Z,11.58
2018-10-02T12:42:26.731Z,11.61
2018-10-02T12:43:26.734Z,11.66
2018-10-02T12:44:27.767Z,11.51
2018-10-02T12:45:26.712Z,11.62
2018-10-02T12:46:26.720Z,11.54
2018-10-02T12:47:26.674Z,11.62
2018-10-02T12:48:26.700Z,11.52
2018-10-02T12:49:26.661Z,11.55
2018-10-02T12:50:26.642Z,11.66
2018-10-02T12:51:26.644Z,11.59
2018-10-02T12:52:26.737Z,11.55
2018-10-02T12:53:26.601Z,11.62
2018-10-02T12:54:26.590Z,11.64
2018-10-02T12:55:26.602Z,11.61
2018-10-02T12:56:26.575Z,11.64
2018-10-02T12:57:26.575Z,11.69
2018-10-02T12:58:26.590Z,11.67
2018-10-02T12:59:26.669Z,11.69
2018-10-02T13:00:26.528Z,11.73
2018-10-02T13:01:26.544Z,11.77
2018-10-02T13:02:26.518Z,11.84
2018-10-02T13:03:26.504Z,11.80
2018-10-02T13:04:26.537Z,11.96
2018-10-02T13:05:26.477Z,11.89
2018-10-02T13:06:26.463Z,12.07
2018-10-02T13:07:26.454Z,12.03
2018-10-02T13:08:26.455Z,11.91
2018-10-02T13:09:26.451Z,12.07
2018-10-02T13:10:26.509Z,12.05
2018-10-02T13:11:26.407Z,12.05
2018-10-02T13:12:26.404Z,12.05